Cedar Point, North Carolina
Current Conditions -  °F | °C
As of 11:57 AM on Friday 24 Oct 2014 (Local Time) from KNJM Reporting Station
Broken Clouds Broken Clouds  
Wind Chill: 65°   Ceiling: 20000
Heat Index: 65°   Visibility: 7mi
Dew Point: 47°   Wind: 5mph
Humidity: 52%   Direction: NA
Pressure: 30.04"   Gusts: NA
Location:  34.7017°N, 77.1399°W
Report Text: KNJM 241557Z VRB04KT 7SM BKN200 18/08 A3004 RMK SLP174 T01830083
Loading
Personal Weather Stations






























Interactive Weather Map New forecast layout! Learn more

10-Day Weather Forecast

Advertisements
Track Severe Weather on mobile